Time;durP1;ratioP1;P1;durP2;ratioP2;P2;SDS_P1;SDS_P2;PMS_P1;PMS_P2;Temp;Humidity;BMP_temperature;BMP_pressure;BME280_temperature;BME280_humidity;BME280_pressure;Samples;Min_cycle;Max_cycle;Signal;HPM_P1;HPM_P2
2023/10/12 00:01:57;;;;;;;4.27;3.53;;;15.20;99.90;;;;;;5032241;28;20190;-77
2023/10/12 00:04:38;;;;;;;5.20;3.57;;;15.20;99.90;;;;;;5042619;28;20208;-76
2023/10/12 00:07:15;;;;;;;5.03;3.80;;;15.20;99.90;;;;;;5034954;28;20224;-77
2023/10/12 00:09:47;;;;;;;6.67;4.10;;;15.20;99.90;;;;;;5027950;28;20623;-76
2023/10/12 00:12:15;;;;;;;4.23;3.83;;;15.20;99.90;;;;;;5038934;28;20214;-75
2023/10/12 00:14:41;;;;;;;5.63;3.73;;;15.20;99.90;;;;;;5029632;28;20244;-77
2023/10/12 00:17:09;;;;;;;5.27;3.77;;;15.20;99.90;;;;;;5025718;28;20233;-75
2023/10/12 00:19:38;;;;;;;5.57;4.30;;;15.20;99.90;;;;;;5033323;28;20244;-75
2023/10/12 00:22:11;;;;;;;7.50;6.70;;;15.30;99.90;;;;;;5034752;28;20419;-76
2023/10/12 00:24:39;;;;;;;6.07;5.40;;;15.30;99.90;;;;;;5032456;28;20207;-76
2023/10/12 00:27:08;;;;;;;5.13;4.30;;;15.40;99.90;;;;;;5032435;28;20234;-75
2023/10/12 00:29:35;;;;;;;6.23;4.33;;;15.40;99.90;;;;;;5028036;28;20287;-76
2023/10/12 00:32:05;;;;;;;4.30;3.13;;;15.40;99.90;;;;;;5029229;28;20230;-76
2023/10/12 00:34:37;;;;;;;3.93;3.27;;;15.40;99.90;;;;;;5025043;28;20199;-77
2023/10/12 00:37:06;;;;;;;5.17;4.00;;;15.40;99.90;;;;;;5042456;28;20227;-77
2023/10/12 00:39:46;;;;;;;4.90;3.97;;;15.40;99.90;;;;;;5029617;28;20205;-77
2023/10/12 00:42:17;;;;;;;4.00;3.53;;;15.40;99.90;;;;;;5030998;28;20230;-76
2023/10/12 00:44:47;;;;;;;3.80;3.40;;;15.40;99.90;;;;;;5038884;28;20213;-76
2023/10/12 00:47:19;;;;;;;4.00;3.60;;;15.30;99.90;;;;;;5052704;28;20220;-76
2023/10/12 00:49:49;;;;;;;4.40;4.00;;;15.30;99.90;;;;;;5031026;28;20197;-76
2023/10/12 00:52:26;;;;;;;5.37;4.83;;;15.20;99.90;;;;;;5030203;28;20273;-77
2023/10/12 00:55:13;;;;;;;6.60;5.93;;;15.20;99.90;;;;;;5029346;28;20200;-77
2023/10/12 00:57:40;;;;;;;6.83;6.23;;;15.20;99.90;;;;;;5026164;28;20218;-76
2023/10/12 01:00:15;;;;;;;5.80;5.13;;;15.10;99.90;;;;;;5029542;28;20198;-77
2023/10/12 01:02:42;;;;;;;6.20;5.60;;;15.10;99.90;;;;;;5025697;28;20206;-77
2023/10/12 01:05:11;;;;;;;5.77;4.80;;;15.10;99.90;;;;;;5026168;28;20214;-76
2023/10/12 01:07:38;;;;;;;7.53;6.70;;;15.00;99.90;;;;;;5026841;28;20197;-77
2023/10/12 01:10:10;;;;;;;7.13;6.53;;;15.00;99.90;;;;;;5027740;28;20207;-75
2023/10/12 01:12:37;;;;;;;6.83;6.30;;;15.00;99.90;;;;;;5029784;28;20250;-75
2023/10/12 01:15:08;;;;;;;7.60;7.00;;;15.00;99.90;;;;;;5037704;28;20205;-75
2023/10/12 01:17:36;;;;;;;7.80;7.10;;;15.10;99.90;;;;;;5040868;28;20213;-77
2023/10/12 01:20:11;;;;;;;7.70;6.90;;;15.10;99.90;;;;;;5041453;28;20294;-77
2023/10/12 01:22:40;;;;;;;7.40;6.80;;;15.10;99.90;;;;;;5030586;28;20237;-77
2023/10/12 01:25:19;;;;;;;7.30;6.70;;;15.10;99.90;;;;;;5024935;28;20531;-77
2023/10/12 01:27:47;;;;;;;7.90;7.20;;;15.10;99.90;;;;;;5057969;28;20234;-77
2023/10/12 01:30:19;;;;;;;7.70;7.00;;;15.10;99.90;;;;;;5031058;28;20207;-75
2023/10/12 01:32:51;;;;;;;7.07;6.47;;;15.10;99.90;;;;;;5035041;28;20228;-75
2023/10/12 01:35:26;;;;;;;6.80;6.30;;;15.10;99.90;;;;;;5054592;28;20231;-77
2023/10/12 01:38:00;;;;;;;6.83;6.33;;;15.10;99.90;;;;;;5025305;28;20205;-76
2023/10/12 01:40:27;;;;;;;7.00;6.40;;;15.10;99.90;;;;;;5027111;28;20204;-75
2023/10/12 01:42:56;;;;;;;7.67;6.97;;;15.10;99.90;;;;;;5024692;28;20198;-75
2023/10/12 01:45:40;;;;;;;7.03;6.43;;;15.10;99.90;;;;;;5023412;28;20258;-77
2023/10/12 01:48:08;;;;;;;7.07;6.47;;;15.10;99.90;;;;;;5024676;28;20211;-77
2023/10/12 01:50:37;;;;;;;7.10;6.50;;;15.10;99.90;;;;;;5029567;28;20204;-77
2023/10/12 01:53:23;;;;;;;7.00;6.50;;;15.10;99.90;;;;;;5037241;28;20227;-76
2023/10/12 01:55:52;;;;;;;7.40;6.80;;;15.10;99.90;;;;;;5032171;28;20239;-76
2023/10/12 01:58:19;;;;;;;7.60;6.90;;;15.10;99.90;;;;;;5042000;28;20206;-77
2023/10/12 02:00:51;;;;;;;7.57;6.87;;;15.00;99.90;;;;;;5034647;28;20202;-76
2023/10/12 02:03:26;;;;;;;7.53;6.93;;;14.90;99.90;;;;;;5032397;28;20258;-77
2023/10/12 02:05:58;;;;;;;7.73;7.10;;;14.90;99.90;;;;;;5035209;28;20217;-76
2023/10/12 02:08:32;;;;;;;8.07;7.37;;;14.80;99.90;;;;;;5027736;28;20203;-76
2023/10/12 02:11:06;;;;;;;7.50;6.90;;;14.80;99.90;;;;;;5023928;28;20266;-76
2023/10/12 02:13:35;;;;;;;9.77;7.67;;;14.70;99.90;;;;;;5023116;28;20198;-76
2023/10/12 02:16:02;;;;;;;7.90;7.20;;;14.70;99.90;;;;;;5024307;28;20248;-76
2023/10/12 02:18:30;;;;;;;8.60;7.80;;;14.60;99.90;;;;;;5034702;28;20255;-75
2023/10/12 02:21:09;;;;;;;8.53;7.83;;;14.60;99.90;;;;;;5027006;28;20215;-77
2023/10/12 02:23:53;;;;;;;7.40;6.80;;;14.60;99.90;;;;;;5026199;28;20618;-76
2023/10/12 02:26:32;;;;;;;7.67;6.97;;;14.60;99.90;;;;;;5038183;28;20672;-77
2023/10/12 02:29:11;;;;;;;8.30;7.60;;;14.60;99.90;;;;;;5032103;28;20201;-77
2023/10/12 02:31:39;;;;;;;8.10;7.50;;;14.60;99.90;;;;;;5037611;28;20247;-76
2023/10/12 02:34:12;;;;;;;4.40;3.70;;;14.60;99.90;;;;;;5057097;28;20231;-77
2023/10/12 02:36:39;;;;;;;4.20;3.77;;;14.60;99.90;;;;;;5057042;28;20228;-77
2023/10/12 02:39:15;;;;;;;4.53;3.70;;;14.60;99.90;;;;;;5026434;28;20671;-76
2023/10/12 02:41:49;;;;;;;5.53;3.80;;;14.60;99.90;;;;;;5030616;28;20201;-81
2023/10/12 02:44:18;;;;;;;3.53;3.23;;;14.70;99.90;;;;;;5044630;28;20206;-77
2023/10/12 02:47:00;;;;;;;3.87;3.20;;;14.70;99.90;;;;;;5027613;28;20248;-77
2023/10/12 02:49:28;;;;;;;3.40;3.10;;;14.80;99.90;;;;;;5028486;28;20213;-82
2023/10/12 02:51:55;;;;;;;3.23;2.93;;;14.80;99.90;;;;;;5029143;28;20219;-77
2023/10/12 02:54:27;;;;;;;3.50;3.10;;;14.90;99.90;;;;;;5028274;28;20580;-77
2023/10/12 03:00:55;;;;;;;4.80;3.53;;;14.90;99.90;;;;;;4989895;28;20200;-83
2023/10/12 03:12:09;;;;;;;3.33;3.00;;;15.10;99.90;;;;;;4884824;29;20212;-82
2023/10/12 03:22:19;;;;;;;4.23;3.07;;;15.10;99.90;;;;;;4888401;28;20270;-80
2023/10/12 03:24:51;;;;;;;3.67;3.20;;;15.10;99.90;;;;;;4996858;28;20202;-81
2023/10/12 03:27:19;;;;;;;3.57;3.17;;;15.00;99.90;;;;;;4991729;28;20229;-81
2023/10/12 03:33:46;;;;;;;3.20;2.90;;;15.00;99.90;;;;;;4991437;28;20217;-81
2023/10/12 03:36:39;;;;;;;4.43;3.43;;;15.00;99.90;;;;;;4987425;28;20318;-81
2023/10/12 03:39:14;;;;;;;4.37;3.60;;;15.10;99.90;;;;;;5002439;28;20210;-77
2023/10/12 03:41:55;;;;;;;4.00;3.53;;;15.10;99.90;;;;;;4991609;28;20211;-77
2023/10/12 03:44:33;;;;;;;7.73;7.03;;;15.20;99.90;;;;;;5005053;28;20197;-77
2023/10/12 03:47:04;;;;;;;7.50;6.80;;;15.20;99.90;;;;;;5007143;28;20238;-77
2023/10/12 03:49:44;;;;;;;9.17;8.30;;;15.30;99.90;;;;;;4993394;28;20206;-78
2023/10/12 03:52:14;;;;;;;3.73;3.10;;;15.30;99.90;;;;;;5013836;28;20221;-78
2023/10/12 03:54:55;;;;;;;4.60;3.33;;;15.30;99.90;;;;;;5013625;28;20213;-77
2023/10/12 03:57:30;;;;;;;4.23;3.10;;;15.30;99.90;;;;;;4995415;28;20731;-77
2023/10/12 04:00:25;;;;;;;3.50;3.07;;;15.30;99.90;;;;;;4982507;28;20274;-77
2023/10/12 04:02:58;;;;;;;6.13;5.63;;;15.30;99.90;;;;;;4989517;28;20197;-77
2023/10/12 04:05:46;;;;;;;7.20;6.60;;;15.30;99.90;;;;;;4997039;28;20207;-77
2023/10/12 04:14:17;;;;;;;6.80;6.30;;;15.40;99.90;;;;;;5006037;28;20542;-77
2023/10/12 04:16:45;;;;;;;6.40;5.90;;;15.40;99.90;;;;;;4990817;28;20235;-77
2023/10/12 04:19:16;;;;;;;5.60;3.50;;;15.40;99.90;;;;;;4991597;28;20194;-77
2023/10/12 04:21:58;;;;;;;3.73;3.20;;;15.40;99.90;;;;;;4992474;28;20248;-77
2023/10/12 04:24:42;;;;;;;3.63;3.20;;;15.50;99.90;;;;;;4992034;28;20201;-77
2023/10/12 04:27:23;;;;;;;4.37;3.10;;;15.50;99.90;;;;;;4993659;28;20217;-77
2023/10/12 04:29:56;;;;;;;4.33;3.40;;;15.40;99.90;;;;;;5011490;28;20199;-77
2023/10/12 04:32:38;;;;;;;4.50;3.13;;;15.40;99.90;;;;;;4997111;28;20212;-77
2023/10/12 04:35:14;;;;;;;5.70;3.23;;;15.30;99.90;;;;;;4997360;28;20440;-77
2023/10/12 04:37:40;;;;;;;4.50;3.30;;;15.20;99.90;;;;;;4996322;28;20251;-77
2023/10/12 04:40:36;;;;;;;3.90;3.43;;;15.20;99.90;;;;;;5011871;28;20215;-77
2023/10/12 04:43:02;;;;;;;3.40;3.03;;;15.20;99.90;;;;;;4990122;28;20239;-77
2023/10/12 04:45:53;;;;;;;3.53;3.20;;;15.20;99.90;;;;;;5007116;28;20198;-77
2023/10/12 04:48:18;;;;;;;3.40;2.90;;;15.20;99.90;;;;;;5005897;28;20197;-77
2023/10/12 04:50:52;;;;;;;3.90;3.47;;;15.20;99.90;;;;;;4990504;28;20194;-77
2023/10/12 04:53:19;;;;;;;4.27;3.50;;;15.20;99.90;;;;;;5010619;28;20234;-77
2023/10/12 04:55:48;;;;;;;3.50;3.20;;;15.20;99.90;;;;;;4995613;28;20235;-77
2023/10/12 04:58:31;;;;;;;4.33;3.20;;;15.20;99.90;;;;;;5008873;28;20203;-77
2023/10/12 05:01:12;;;;;;;3.73;3.40;;;15.20;99.90;;;;;;5004128;28;20240;-77
2023/10/12 05:03:41;;;;;;;3.70;3.10;;;15.20;99.90;;;;;;5010325;28;20215;-77
2023/10/12 05:06:08;;;;;;;3.33;3.03;;;15.20;99.90;;;;;;4995752;28;20216;-77
2023/10/12 05:08:36;;;;;;;4.13;3.50;;;15.20;99.90;;;;;;5004271;28;20205;-78
2023/10/12 05:11:08;;;;;;;6.93;6.23;;;15.10;99.90;;;;;;4990079;28;20641;-78
2023/10/12 05:13:42;;;;;;;4.80;4.40;;;15.10;99.90;;;;;;4993783;28;20218;-77
2023/10/12 05:16:09;;;;;;;3.57;3.20;;;15.10;99.90;;;;;;5006989;28;20272;-77
2023/10/12 05:18:37;;;;;;;4.53;3.73;;;15.00;99.90;;;;;;5006177;28;20248;-77
2023/10/12 05:21:08;;;;;;;4.80;4.00;;;15.00;99.90;;;;;;4994985;28;20203;-78
2023/10/12 05:23:35;;;;;;;4.17;3.53;;;14.90;99.90;;;;;;5007397;28;20207;-77
2023/10/12 05:26:09;;;;;;;5.63;3.63;;;14.90;99.90;;;;;;4990277;28;20225;-78
2023/10/12 05:28:44;;;;;;;4.13;3.50;;;14.90;99.90;;;;;;5008852;28;20216;-77
2023/10/12 05:31:13;;;;;;;4.47;3.80;;;14.90;99.90;;;;;;5006872;28;20204;-77
2023/10/12 05:33:43;;;;;;;6.10;5.50;;;14.90;99.90;;;;;;5007441;28;20314;-78
2023/10/12 05:36:12;;;;;;;8.30;7.60;;;14.90;99.90;;;;;;4990442;28;20224;-78
2023/10/12 05:38:40;;;;;;;6.90;6.30;;;14.90;99.90;;;;;;5005334;28;20301;-77
2023/10/12 05:41:09;;;;;;;7.87;7.17;;;14.90;99.90;;;;;;4992949;28;20416;-77
2023/10/12 05:43:40;;;;;;;6.87;6.37;;;14.80;99.90;;;;;;5007755;28;20254;-77
2023/10/12 05:46:14;;;;;;;7.43;6.83;;;14.80;99.90;;;;;;4993946;28;20222;-77
2023/10/12 05:48:45;;;;;;;6.93;6.07;;;14.80;99.90;;;;;;4992470;28;20214;-77
2023/10/12 05:51:14;;;;;;;7.30;6.60;;;14.80;99.90;;;;;;5004924;28;20207;-77
2023/10/12 05:53:41;;;;;;;8.57;7.87;;;14.80;99.90;;;;;;4988429;28;20223;-77
2023/10/12 05:56:09;;;;;;;7.17;6.47;;;14.70;99.90;;;;;;4989050;28;20281;-77
2023/10/12 05:58:38;;;;;;;5.70;4.90;;;14.70;99.90;;;;;;5002035;28;20198;-77
2023/10/12 06:01:30;;;;;;;5.50;4.33;;;14.70;99.90;;;;;;5005800;28;20718;-77
2023/10/12 06:03:57;;;;;;;4.10;3.70;;;14.80;99.90;;;;;;4990836;28;20191;-77
2023/10/12 06:06:24;;;;;;;7.07;4.30;;;14.90;99.90;;;;;;4990501;28;20218;-77
2023/10/12 06:08:52;;;;;;;5.10;4.20;;;14.90;99.90;;;;;;5008200;28;20264;-77
2023/10/12 06:11:25;;;;;;;4.43;3.80;;;14.90;99.90;;;;;;4989097;28;20210;-77
2023/10/12 06:13:52;;;;;;;5.43;4.10;;;15.00;99.90;;;;;;4988063;28;20696;-77
2023/10/12 06:16:20;;;;;;;5.93;4.63;;;15.10;99.90;;;;;;4991675;28;20734;-77
2023/10/12 06:18:49;;;;;;;6.30;4.53;;;15.10;99.90;;;;;;5006497;28;20207;-78
2023/10/12 06:21:18;;;;;;;7.10;4.60;;;15.20;99.90;;;;;;4990462;28;20200;-78
2023/10/12 06:23:50;;;;;;;9.50;7.40;;;15.30;99.90;;;;;;5003791;28;20198;-78
2023/10/12 06:26:28;;;;;;;5.70;4.47;;;15.40;99.90;;;;;;5004210;28;20601;-77
2023/10/12 06:28:57;;;;;;;8.87;8.17;;;15.50;99.90;;;;;;4993749;28;20205;-77
2023/10/12 06:31:25;;;;;;;8.60;7.80;;;15.70;99.90;;;;;;4992420;28;20201;-77
2023/10/12 06:33:55;;;;;;;7.80;4.50;;;15.80;99.90;;;;;;5011465;28;20250;-78
2023/10/12 06:36:36;;;;;;;5.83;4.50;;;15.80;99.90;;;;;;4990180;28;20229;-78
2023/10/12 06:42:09;;;;;;;6.53;4.90;;;16.00;99.90;;;;;;4993257;28;20223;-78
2023/10/12 06:44:40;;;;;;;5.90;5.00;;;16.10;99.90;;;;;;5008025;28;20627;-78
2023/10/12 06:49:49;;;;;;;5.77;4.57;;;16.40;99.90;;;;;;4990162;28;20220;-78
2023/10/12 06:52:19;;;;;;;8.33;4.57;;;16.60;99.90;;;;;;4992181;28;20266;-78
2023/10/12 06:54:54;;;;;;;5.97;4.47;;;16.80;99.90;;;;;;4991299;28;20229;-78
2023/10/12 06:57:42;;;;;;;4.67;3.80;;;17.00;99.90;;;;;;4987390;28;20232;-77
2023/10/12 07:00:29;;;;;;;8.17;7.37;;;17.20;99.90;;;;;;4985205;28;20296;-77
2023/10/12 07:02:55;;;;;;;6.60;4.33;;;17.40;99.90;;;;;;4992497;28;20297;-77
2023/10/12 07:05:28;;;;;;;8.17;7.37;;;17.60;99.90;;;;;;4990595;28;20252;-77
2023/10/12 07:07:58;;;;;;;9.47;8.57;;;17.70;99.90;;;;;;5004027;28;20229;-77
2023/10/12 07:10:28;;;;;;;5.83;4.23;;;17.90;99.90;;;;;;4989689;28;20201;-77
2023/10/12 07:13:00;;;;;;;8.47;7.70;;;18.10;99.90;;;;;;5003433;28;20255;-78
2023/10/12 07:15:33;;;;;;;8.43;7.50;;;18.30;99.90;;;;;;4994255;28;20606;-77
2023/10/12 07:18:07;;;;;;;5.67;4.20;;;18.50;99.90;;;;;;4994324;28;20231;-79
2023/10/12 07:20:46;;;;;;;8.23;7.43;;;18.80;99.90;;;;;;4993937;28;20207;-81
2023/10/12 07:23:16;;;;;;;8.77;7.97;;;19.10;99.90;;;;;;5008879;28;20210;-81
2023/10/12 07:25:45;;;;;;;6.90;5.87;;;19.50;99.90;;;;;;4995798;28;20239;-82
2023/10/12 07:38:00;;;;;;;9.33;8.53;;;20.90;99.90;;;;;;4923529;29;20287;-82
2023/10/12 07:44:41;;;;;;;9.13;8.33;;;21.30;99.90;;;;;;4933837;29;20210;-81
2023/10/12 07:47:31;;;;;;;7.37;5.17;;;21.90;99.90;;;;;;4985708;28;20221;-81
2023/10/12 07:50:25;;;;;;;9.40;8.60;;;22.20;99.90;;;;;;5009003;28;20197;-81
2023/10/12 07:53:06;;;;;;;7.67;5.10;;;22.40;99.90;;;;;;4994304;28;20197;-82
2023/10/12 07:55:43;;;;;;;6.80;4.80;;;23.00;99.90;;;;;;4993796;28;20688;-80
2023/10/12 07:58:57;;;;;;;8.13;7.33;;;23.50;99.90;;;;;;5007520;28;20190;-82
2023/10/12 08:01:39;;;;;;;9.13;8.27;;;24.10;99.90;;;;;;4980219;28;20205;-80
2023/10/12 08:04:58;;;;;;;7.23;4.67;;;24.10;99.90;;;;;;5001011;28;20194;-84
2023/10/12 08:10:58;;;;;;;8.83;7.50;;;23.50;99.90;;;;;;4987447;28;20209;-79
2023/10/12 08:13:32;;;;;;;7.30;6.60;;;23.30;99.90;;;;;;4990816;28;20690;-79
2023/10/12 08:16:02;;;;;;;7.17;4.80;;;23.10;99.90;;;;;;4990870;28;20266;-78
2023/10/12 08:21:24;;;;;;;13.17;5.27;;;23.10;99.90;;;;;;4991770;28;20560;-78
2023/10/12 08:23:57;;;;;;;9.63;6.13;;;22.90;99.90;;;;;;5008256;28;20206;-78
2023/10/12 08:32:12;;;;;;;8.50;7.70;;;22.70;99.90;;;;;;4990603;28;20276;-78
2023/10/12 08:35:10;;;;;;;9.27;8.27;;;22.60;99.90;;;;;;5006548;28;20252;-78
2023/10/12 08:37:36;;;;;;;9.60;8.60;;;22.50;99.90;;;;;;4992860;28;20248;-78
2023/10/12 08:40:19;;;;;;;9.40;8.50;;;22.40;99.90;;;;;;5007779;28;20194;-78
2023/10/12 08:42:55;;;;;;;9.00;8.20;;;22.40;99.90;;;;;;5008143;28;20216;-78
2023/10/12 08:45:26;;;;;;;10.20;8.90;;;22.30;99.90;;;;;;4995496;28;20190;-78
2023/10/12 08:47:54;;;;;;;9.03;8.13;;;22.20;99.90;;;;;;4994222;28;20256;-78
2023/10/12 08:53:07;;;;;;;9.43;8.43;;;22.10;99.90;;;;;;4996276;28;20272;-78
2023/10/12 08:55:37;;;;;;;8.83;7.93;;;22.00;99.90;;;;;;5012834;28;20582;-78
2023/10/12 08:58:21;;;;;;;9.13;8.23;;;22.00;99.90;;;;;;5013833;28;20202;-78
2023/10/12 09:01:07;;;;;;;9.60;8.70;;;22.00;99.90;;;;;;4991875;28;20200;-78
2023/10/12 09:03:38;;;;;;;9.47;8.60;;;21.90;99.90;;;;;;4989814;28;20261;-78
2023/10/12 09:06:19;;;;;;;8.70;8.00;;;21.90;99.90;;;;;;5005866;28;20656;-78
2023/10/12 09:08:47;;;;;;;11.33;8.63;;;21.90;99.90;;;;;;5008799;28;20201;-78
2023/10/12 09:11:14;;;;;;;10.73;8.60;;;21.90;99.90;;;;;;4993151;28;20237;-79
2023/10/12 09:13:45;;;;;;;9.47;8.07;;;21.80;99.90;;;;;;5010433;28;20719;-79
2023/10/12 09:16:14;;;;;;;9.67;8.70;;;21.80;99.90;;;;;;4992000;28;20259;-78
2023/10/12 09:18:44;;;;;;;9.20;8.40;;;21.80;99.90;;;;;;5008758;28;20735;-78
2023/10/12 09:21:23;;;;;;;9.60;8.70;;;21.80;99.90;;;;;;4995227;28;20272;-78
2023/10/12 09:23:52;;;;;;;9.23;8.43;;;21.90;99.90;;;;;;5007562;28;20208;-79
2023/10/12 09:26:31;;;;;;;8.97;8.13;;;22.00;99.90;;;;;;4988782;28;20225;-79
2023/10/12 09:29:08;;;;;;;8.20;7.47;;;22.00;99.90;;;;;;4989248;28;20272;-79
2023/10/12 09:39:26;;;;;;;9.33;8.43;;;22.40;99.90;;;;;;4991349;28;20212;-84
2023/10/12 09:41:59;;;;;;;8.80;8.00;;;22.50;99.90;;;;;;4973681;28;20292;-82
2023/10/12 09:44:28;;;;;;;7.93;5.00;;;22.60;99.90;;;;;;4957236;28;20215;-81
2023/10/12 09:46:56;;;;;;;6.07;4.37;;;22.60;99.90;;;;;;4978015;28;20324;-78
2023/10/12 09:49:27;;;;;;;7.80;4.77;;;22.50;99.90;;;;;;4991190;28;20201;-79
2023/10/12 09:52:13;;;;;;;6.87;5.07;;;22.50;99.90;;;;;;4997947;28;20220;-84
2023/10/12 09:54:56;;;;;;;5.50;4.20;;;22.60;99.90;;;;;;4992969;28;20214;-83
2023/10/12 09:57:36;;;;;;;7.47;4.43;;;22.70;99.90;;;;;;4997188;28;20224;-83
2023/10/12 10:00:18;;;;;;;4.43;4.03;;;22.80;99.90;;;;;;4995642;28;20205;-79
2023/10/12 10:02:49;;;;;;;7.37;5.13;;;22.90;99.90;;;;;;4992269;28;20193;-79
2023/10/12 10:05:27;;;;;;;6.93;5.33;;;22.90;99.90;;;;;;5012542;28;20300;-79
2023/10/12 10:07:59;;;;;;;5.40;4.77;;;23.00;99.90;;;;;;4991006;28;20308;-78
2023/10/12 10:10:30;;;;;;;6.47;4.70;;;23.00;99.90;;;;;;4989341;28;20333;-78
2023/10/12 10:13:00;;;;;;;12.00;8.70;;;23.10;99.90;;;;;;5005490;28;20212;-78
2023/10/12 10:15:36;;;;;;;6.50;5.90;;;23.10;99.90;;;;;;4981874;28;20217;-78
2023/10/12 10:18:05;;;;;;;8.87;5.17;;;23.20;99.90;;;;;;4996216;28;20203;-78
2023/10/12 10:20:56;;;;;;;8.73;6.37;;;23.20;99.90;;;;;;4992097;28;20201;-78
2023/10/12 10:23:23;;;;;;;9.83;8.00;;;23.30;99.90;;;;;;4990309;28;20284;-78
2023/10/12 10:25:56;;;;;;;7.40;6.63;;;23.30;99.90;;;;;;4990531;28;20407;-78
2023/10/12 10:28:32;;;;;;;8.27;4.80;;;23.30;99.90;;;;;;4994285;28;20236;-78
2023/10/12 10:31:00;;;;;;;6.30;5.00;;;23.20;99.90;;;;;;5011364;28;20734;-78
2023/10/12 10:33:28;;;;;;;5.80;4.50;;;23.20;99.90;;;;;;4988610;28;20193;-78
2023/10/12 10:36:01;;;;;;;6.60;5.07;;;23.10;99.90;;;;;;4992610;28;20236;-78
2023/10/12 10:38:32;;;;;;;6.73;4.97;;;23.00;99.90;;;;;;4991904;28;20206;-78
2023/10/12 10:41:07;;;;;;;8.50;7.70;;;23.00;99.90;;;;;;4993397;28;20321;-78
2023/10/12 10:43:37;;;;;;;8.97;8.17;;;23.10;99.90;;;;;;4989043;28;20193;-78
2023/10/12 10:46:06;;;;;;;9.07;8.27;;;23.10;99.90;;;;;;5003561;28;20230;-78
2023/10/12 10:48:36;;;;;;;9.47;8.57;;;23.20;99.90;;;;;;4994213;28;20224;-78
2023/10/12 10:51:06;;;;;;;7.30;6.13;;;23.30;99.90;;;;;;5008552;28;20213;-78
2023/10/12 10:53:37;;;;;;;6.90;5.67;;;23.40;99.90;;;;;;4995400;28;20225;-79
2023/10/12 10:56:12;;;;;;;7.17;6.00;;;23.40;99.90;;;;;;4994133;28;20244;-78
2023/10/12 10:58:41;;;;;;;9.00;8.20;;;23.50;99.90;;;;;;4990877;28;20224;-78
2023/10/12 11:01:12;;;;;;;7.97;4.97;;;23.60;99.90;;;;;;4990053;28;20201;-78
2023/10/12 11:03:40;;;;;;;8.00;4.70;;;23.70;99.90;;;;;;4988550;28;20199;-78
2023/10/12 11:06:18;;;;;;;7.47;4.87;;;23.70;99.90;;;;;;4996511;28;20217;-78
2023/10/12 11:09:04;;;;;;;9.20;5.17;;;23.70;99.90;;;;;;5007854;28;20205;-78
2023/10/12 11:11:37;;;;;;;8.23;7.50;;;23.80;99.90;;;;;;4990266;28;20229;-78
2023/10/12 11:14:05;;;;;;;7.77;6.97;;;23.80;99.90;;;;;;4996914;28;20212;-78
2023/10/12 11:16:33;;;;;;;8.17;7.37;;;23.80;99.90;;;;;;4988304;28;20305;-78
2023/10/12 11:19:00;;;;;;;9.40;8.60;;;23.90;99.90;;;;;;4989909;28;20197;-78
2023/10/12 11:21:27;;;;;;;9.93;8.73;;;24.00;99.90;;;;;;4987961;28;20201;-78
2023/10/12 11:24:00;;;;;;;9.23;8.33;;;24.00;99.90;;;;;;4996405;28;20201;-78
2023/10/12 11:26:27;;;;;;;9.37;8.57;;;24.10;99.90;;;;;;4993664;28;20221;-78
2023/10/12 11:29:06;;;;;;;9.57;8.77;;;24.10;99.90;;;;;;4997070;28;20628;-78
2023/10/12 11:31:33;;;;;;;9.17;8.27;;;24.10;99.90;;;;;;4996990;28;20204;-78
2023/10/12 11:34:06;;;;;;;9.00;8.30;;;24.00;99.90;;;;;;4997581;28;20244;-78
2023/10/12 11:36:35;;;;;;;4.93;4.40;;;24.00;99.90;;;;;;4997819;28;20225;-78
2023/10/12 11:39:04;;;;;;;5.17;4.10;;;23.80;99.90;;;;;;5010953;28;20300;-78
2023/10/12 11:41:31;;;;;;;5.13;4.27;;;23.70;99.90;;;;;;4995402;28;20267;-78
2023/10/12 11:44:00;;;;;;;8.03;4.73;;;23.60;99.90;;;;;;4994387;28;20225;-78
2023/10/12 11:46:43;;;;;;;8.03;4.53;;;23.50;99.90;;;;;;5008400;28;20221;-78
2023/10/12 11:49:11;;;;;;;8.23;7.53;;;23.50;99.90;;;;;;4992298;28;20202;-78
2023/10/12 11:51:42;;;;;;;7.60;6.93;;;23.60;99.90;;;;;;4995662;28;20209;-78
2023/10/12 11:54:19;;;;;;;9.13;7.60;;;23.60;99.90;;;;;;4991513;28;20253;-77
2023/10/12 11:56:49;;;;;;;8.87;8.07;;;23.60;99.90;;;;;;4996998;28;20232;-78
2023/10/12 11:59:22;;;;;;;8.93;8.03;;;23.70;99.90;;;;;;4996103;28;20193;-78
2023/10/12 12:01:56;;;;;;;8.80;8.00;;;23.80;99.90;;;;;;4993191;28;20201;-78
2023/10/12 12:04:31;;;;;;;8.73;7.90;;;23.90;99.90;;;;;;4992342;28;20204;-78
2023/10/12 12:07:00;;;;;;;10.57;8.20;;;24.00;99.90;;;;;;4997018;28;20231;-78
2023/10/12 12:09:28;;;;;;;8.67;7.97;;;24.00;99.90;;;;;;4998462;28;20201;-78
2023/10/12 12:11:55;;;;;;;7.90;4.77;;;24.00;99.90;;;;;;5010794;28;20221;-78
2023/10/12 12:14:32;;;;;;;5.53;4.23;;;24.10;99.90;;;;;;4996366;28;20229;-84
2023/10/12 12:20:21;;;;;;;6.33;4.03;;;24.30;99.90;;;;;;4985465;28;20205;-82
2023/10/12 12:22:48;;;;;;;6.00;4.00;;;24.40;99.90;;;;;;5013270;28;20313;-83
2023/10/12 12:25:20;;;;;;;7.03;4.40;;;24.50;99.90;;;;;;4997038;28;20255;-82
2023/10/12 12:27:49;;;;;;;7.77;5.87;;;24.70;99.90;;;;;;4992018;28;20685;-82
2023/10/12 12:30:30;;;;;;;8.93;8.00;;;24.80;99.90;;;;;;4993978;28;20207;-82
2023/10/12 12:33:00;;;;;;;8.60;7.60;;;24.90;99.90;;;;;;5001176;28;20228;-82
2023/10/12 12:35:29;;;;;;;8.60;7.90;;;24.90;99.90;;;;;;4996262;28;20213;-83
2023/10/12 12:38:00;;;;;;;8.17;7.47;;;24.80;99.90;;;;;;4989692;28;20243;-83
2023/10/12 12:40:30;;;;;;;7.90;7.20;;;24.80;99.90;;;;;;5006304;28;20205;-82
2023/10/12 12:42:57;;;;;;;7.87;7.17;;;24.70;99.90;;;;;;5006148;28;20198;-83
2023/10/12 12:45:24;;;;;;;8.77;7.93;;;24.60;99.90;;;;;;5009536;28;20225;-83
2023/10/12 12:47:51;;;;;;;8.37;7.67;;;24.40;99.90;;;;;;5004262;28;20779;-82
2023/10/12 12:50:19;;;;;;;8.80;8.00;;;24.30;99.90;;;;;;4988288;28;20267;-83
2023/10/12 12:52:47;;;;;;;9.07;8.37;;;24.10;99.90;;;;;;4991576;28;20197;-83
2023/10/12 12:55:16;;;;;;;8.57;7.83;;;24.10;99.90;;;;;;4994354;28;20240;-81
2023/10/12 12:57:43;;;;;;;9.03;7.90;;;24.00;99.90;;;;;;5011013;28;20233;-83
2023/10/12 13:00:11;;;;;;;8.57;7.70;;;24.00;99.90;;;;;;5004665;28;20669;-83
2023/10/12 13:02:38;;;;;;;8.77;7.90;;;24.10;99.90;;;;;;4998161;28;20197;-83
2023/10/12 13:05:07;;;;;;;9.40;8.37;;;24.00;99.90;;;;;;5003456;28;20248;-83
2023/10/12 13:07:36;;;;;;;7.17;4.47;;;24.00;99.90;;;;;;5009405;28;20233;-82
2023/10/12 13:10:06;;;;;;;6.20;4.10;;;24.00;99.90;;;;;;4990781;28;20703;-83
2023/10/12 13:12:33;;;;;;;6.10;4.20;;;24.00;99.90;;;;;;5003350;28;20300;-83
2023/10/12 13:15:00;;;;;;;7.00;4.10;;;24.00;99.90;;;;;;4985852;28;20279;-83
2023/10/12 13:17:29;;;;;;;4.97;3.67;;;23.90;99.90;;;;;;4991249;28;20221;-82
2023/10/12 13:19:58;;;;;;;6.23;3.83;;;23.80;99.90;;;;;;5006186;28;20681;-80
2023/10/12 13:22:25;;;;;;;5.30;3.90;;;23.70;99.90;;;;;;4988658;28;20238;-77
2023/10/12 13:24:56;;;;;;;7.93;6.97;;;23.70;99.90;;;;;;4992856;28;20208;-77
2023/10/12 13:27:24;;;;;;;5.23;3.87;;;23.50;99.90;;;;;;4989386;28;20279;-77
2023/10/12 13:29:51;;;;;;;4.33;3.80;;;23.50;99.90;;;;;;5007307;28;20202;-77
2023/10/12 13:32:18;;;;;;;5.87;5.30;;;23.40;99.90;;;;;;4991013;28;20620;-77
2023/10/12 13:34:45;;;;;;;4.80;3.70;;;23.30;99.90;;;;;;4988639;28;20304;-77
2023/10/12 13:37:13;;;;;;;4.67;3.70;;;23.20;99.90;;;;;;5002434;28;20221;-82
2023/10/12 13:39:39;;;;;;;5.60;5.10;;;23.10;99.90;;;;;;4994008;28;20263;-79
2023/10/12 13:42:11;;;;;;;5.10;3.57;;;23.10;99.90;;;;;;4992338;28;20676;-83
2023/10/12 13:44:39;;;;;;;7.67;7.03;;;23.00;99.90;;;;;;4996546;28;20252;-81
2023/10/12 13:47:07;;;;;;;7.67;7.00;;;23.00;99.90;;;;;;5009931;28;20225;-82
2023/10/12 13:49:34;;;;;;;4.17;3.77;;;23.10;99.90;;;;;;5001897;28;20205;-81
2023/10/12 13:52:03;;;;;;;8.70;7.53;;;23.10;99.90;;;;;;5005953;28;20729;-81
2023/10/12 13:54:31;;;;;;;7.67;6.97;;;23.10;99.90;;;;;;4989846;28;20577;-80
2023/10/12 13:57:02;;;;;;;8.10;7.30;;;23.20;99.90;;;;;;5010660;28;20665;-82
2023/10/12 13:59:30;;;;;;;7.43;6.73;;;23.20;99.90;;;;;;5005837;28;20198;-82
2023/10/12 14:01:57;;;;;;;7.20;6.60;;;23.20;99.90;;;;;;5007093;28;20204;-82
2023/10/12 14:04:29;;;;;;;7.87;7.17;;;23.20;99.90;;;;;;5002324;28;20208;-80
2023/10/12 14:07:00;;;;;;;7.17;6.60;;;23.20;99.90;;;;;;4985193;28;20719;-81
2023/10/12 14:09:28;;;;;;;8.03;7.33;;;23.20;99.90;;;;;;5004989;28;20291;-81
2023/10/12 14:11:55;;;;;;;7.43;6.83;;;23.20;99.90;;;;;;5013765;28;20285;-81
2023/10/12 14:14:23;;;;;;;8.23;7.60;;;23.20;99.90;;;;;;5004541;28;20200;-80
2023/10/12 14:16:52;;;;;;;8.27;7.50;;;23.20;99.90;;;;;;5007640;28;20699;-80
2023/10/12 14:19:22;;;;;;;7.70;7.10;;;23.20;99.90;;;;;;4990317;28;20615;-80
2023/10/12 14:21:52;;;;;;;7.70;7.13;;;23.20;99.90;;;;;;5003494;28;20212;-80
2023/10/12 14:24:22;;;;;;;8.00;7.27;;;23.20;99.90;;;;;;5006259;28;20225;-80
2023/10/12 14:26:49;;;;;;;8.10;7.30;;;23.10;99.90;;;;;;4987061;28;20648;-81
2023/10/12 14:29:18;;;;;;;4.73;3.87;;;23.10;99.90;;;;;;4999238;28;20200;-81